Renown — WAJ2248 — position and weather

sailwx.info

Track history (hours):
 
Tides and Currents Weather Stations Pressure Air Temp Water Temp Dewpoint Dewpoint Depression Visibility Wind Speed Wind Dir Waves Ship Positions

Renown

Owner: Hornblower Cruises and Events, SAN DIEGO, CA. More information available from US FCC via Universal Licensing System and Coast Guard Vessel Documentation Center.

Last reported at 2017-Oct-15 05:22 UTC. Time now 2017-Oct-19 23:32 UTC.
Position N 32°41' W 117°08'.

Length 20 m.

Type: Passenger vessel. MMSI: 367015810.

Date/timePositionNaut miles runAvg speedWind from/ knotsBaromVisibWave heightAir tempDewpointWater temp
2017-Oct-15 05:22N 32°41' W 117°08'1 1.0
2017-Oct-15 04:45N 32°41' W 117°09'3 2.7
2017-Oct-15 03:48N 32°43' W 117°11'2 5.1
2017-Oct-15 03:30N 32°43' W 117°13'0 0.9
2017-Oct-15 03:00N 32°43' W 117°13'  
2017-Oct-08 02:26N 32°43' W 117°13'1 1.7
2017-Oct-08 01:54N 32°43' W 117°14'2 5.6
2017-Oct-08 01:30N 32°41' W 117°14'1 2.6
2017-Oct-08 01:00N 32°42' W 117°14'4 0.1
2017-Oct-06 03:18N 32°41' W 117°09'3 3.1
2017-Oct-06 02:14N 32°43' W 117°12'  
Track history (hours):
 
Tides and Currents Weather Stations Pressure Air Temp Water Temp Dewpoint Dewpoint Depression Visibility Wind Speed Wind Dir Waves Ship Positions

Renown

Owner: Hornblower Cruises and Events, SAN DIEGO, CA. More information available from US FCC via Universal Licensing System and Coast Guard Vessel Documentation Center.

Last reported at 2017-Oct-15 05:22 UTC. Time now 2017-Oct-19 23:32 UTC.
Position N 32°41' W 117°08'.

Length 20 m.

Type: Passenger vessel. MMSI: 367015810.

Date/timePositionNaut miles runAvg speedWind from/ knotsBaromVisibWave heightAir tempDewpointWater temp
2017-Oct-15 05:22N 32°41' W 117°08'1 1.0
2017-Oct-15 04:45N 32°41' W 117°09'3 2.7
2017-Oct-15 03:48N 32°43' W 117°11'2 5.1
2017-Oct-15 03:30N 32°43' W 117°13'0 0.9
2017-Oct-15 03:00N 32°43' W 117°13'  
2017-Oct-08 02:26N 32°43' W 117°13'1 1.7
2017-Oct-08 01:54N 32°43' W 117°14'2 5.6
2017-Oct-08 01:30N 32°41' W 117°14'1 2.6
2017-Oct-08 01:00N 32°42' W 117°14'4 0.1
2017-Oct-06 03:18N 32°41' W 117°09'3 3.1
2017-Oct-06 02:14N 32°43' W 117°12'  

Dump ship's entire track history